< < Back
Terminal Aerodrome Forecast


Current Version              Previous Versions:   1  2  3  4  5  6  7  8  9  

Terminal Aerodrome Forecast

462
FTUS44 KMOB 241725
TAFPNS
TAF
KPNS 241725Z 2418/2518 13015G26KT P6SM VCTS SCT020CB BKN030
      TEMPO 2419/2423 3SM TSRA BKN020CB
     FM250100 14010KT P6SM BKN025 PROB30 2506/2512 3SM SHRA BKN020
     FM251200 13010KT P6SM VCSH BKN025 PROB30 2512/2518 3SM SHRA
      BKN020=



Latest METAR

182
SAUS70 KWBC 250100
MTRPNS
METAR KPNS 250053Z AUTO 14014KT 10SM BKN016 26/23 A3011 RMK AO2 SLP198
T02560228


USA.gov is the U.S. government's official web portal to all federal, state and local government web resources and services.